createdAt,value
2019-04-27T00:00:00.011Z,101127.22
2019-04-27T00:02:50.388Z,101121.41
2019-04-27T00:05:38.692Z,101133.94
2019-04-27T00:08:35.615Z,101144.28
2019-04-27T00:11:23.543Z,101140.20
2019-04-27T00:13:53.575Z,101147.28
2019-04-27T00:16:50.810Z,101145.95
2019-04-27T00:19:38.506Z,101151.28
2019-04-27T00:22:19.363Z,101150.41
2019-04-27T00:24:48.640Z,101142.81
2019-04-27T00:27:18.107Z,101137.94
2019-04-27T00:29:47.441Z,101129.52
2019-04-27T00:32:16.830Z,101119.80
2019-04-27T00:34:46.311Z,101112.72
2019-04-27T00:37:46.848Z,101103.79
2019-04-27T00:40:44.473Z,101097.67
2019-04-27T00:43:14.055Z,101084.87
2019-04-27T00:45:43.759Z,101071.03
2019-04-27T00:48:13.342Z,101067.98
2019-04-27T00:50:43.894Z,101063.16
2019-04-27T00:53:13.509Z,101074.35
2019-04-27T00:55:59.889Z,101078.53
2019-04-27T00:58:48.315Z,101076.83
2019-04-27T01:01:25.502Z,101072.55
2019-04-27T01:04:17.560Z,101065.98
2019-04-27T01:06:47.076Z,101056.27
2019-04-27T01:09:17.175Z,101057.28
2019-04-27T01:11:46.440Z,101052.87
2019-04-27T01:14:15.854Z,101038.74
2019-04-27T01:16:45.192Z,101032.99
2019-04-27T01:19:14.722Z,101027.66
2019-04-27T01:21:44.332Z,101024.12
2019-04-27T01:24:13.678Z,101018.83
2019-04-27T01:27:04.523Z,101016.67
2019-04-27T01:29:36.981Z,101019.94
2019-04-27T01:32:08.650Z,101035.19
2019-04-27T01:34:39.658Z,101039.29
2019-04-27T01:37:10.715Z,101033.77
2019-04-27T01:39:42.449Z,101030.99
2019-04-27T01:42:14.058Z,101029.80
2019-04-27T01:44:43.442Z,101034.38
2019-04-27T01:47:12.852Z,101033.22
2019-04-27T01:49:43.279Z,101024.08
2019-04-27T01:52:12.682Z,101010.37
2019-04-27T01:54:42.471Z,101009.09
2019-04-27T01:57:12.288Z,101015.80
2019-04-27T01:59:41.415Z,101013.76
2019-04-27T02:02:30.327Z,101024.51
2019-04-27T02:05:29.052Z,101026.97
2019-04-27T02:07:59.228Z,101028.42
2019-04-27T02:10:29.279Z,101029.34
2019-04-27T02:12:58.809Z,101032.88
2019-04-27T02:15:29.353Z,101039.70
2019-04-27T02:17:59.637Z,101048.37
2019-04-27T02:20:30.110Z,101043.08
2019-04-27T02:22:59.340Z,101045.33
2019-04-27T02:25:29.446Z,101044.00
2019-04-27T02:28:04.235Z,101041.75
2019-04-27T02:30:58.302Z,101034.27
2019-04-27T02:33:46.876Z,101029.77
2019-04-27T02:36:16.468Z,101032.02
2019-04-27T02:38:45.987Z,101035.71
2019-04-27T02:41:15.453Z,101028.69
2019-04-27T02:44:19.938Z,101025.14
2019-04-27T02:46:50.404Z,101031.80
2019-04-27T02:49:20.225Z,101036.71
2019-04-27T02:52:04.894Z,101036.67
2019-04-27T02:54:34.066Z,101032.17
2019-04-27T02:57:03.489Z,101030.89
2019-04-27T02:59:33.343Z,101030.06
2019-04-27T03:02:10.521Z,101030.89
2019-04-27T03:04:40.108Z,101024.64
2019-04-27T03:07:11.409Z,101017.41
2019-04-27T03:09:40.090Z,101023.19
2019-04-27T03:12:10.364Z,101019.69
2019-04-27T03:15:10.210Z,101019.81
2019-04-27T03:17:59.568Z,101012.70
2019-04-27T03:20:34.235Z,101009.16
2019-04-27T03:23:06.042Z,101009.74
2019-04-27T03:25:41.588Z,101014.61
2019-04-27T03:28:12.877Z,101013.73
2019-04-27T03:30:43.523Z,101017.41
2019-04-27T03:33:12.752Z,101014.28
2019-04-27T03:35:43.692Z,101020.48
2019-04-27T03:38:13.104Z,101021.47
2019-04-27T03:40:42.816Z,101021.89
2019-04-27T03:43:21.488Z,101019.56
2019-04-27T03:45:52.773Z,101009.38
2019-04-27T03:48:22.334Z,101004.09
2019-04-27T03:51:02.843Z,101000.09
2019-04-27T03:53:49.910Z,101002.42
2019-04-27T03:56:41.024Z,100987.86
2019-04-27T03:59:32.567Z,100992.84
2019-04-27T04:02:02.747Z,100998.67
2019-04-27T04:04:32.803Z,100997.84
2019-04-27T04:07:15.660Z,100993.39
2019-04-27T04:09:45.477Z,100990.80
2019-04-27T04:12:22.057Z,100994.39
2019-04-27T04:14:51.057Z,100984.28
2019-04-27T04:17:21.423Z,100999.87
2019-04-27T04:19:57.444Z,100999.80
2019-04-27T04:22:22.082Z,101001.20
2019-04-27T04:24:51.203Z,101000.33
2019-04-27T04:27:20.979Z,101002.46
2019-04-27T04:29:50.015Z,101001.55
2019-04-27T04:32:19.489Z,100998.12
2019-04-27T04:34:50.244Z,100999.00
2019-04-27T04:37:20.031Z,100997.25
2019-04-27T04:39:53.067Z,100999.00
2019-04-27T04:42:36.157Z,101003.41
2019-04-27T04:45:16.764Z,100994.47
2019-04-27T04:47:49.920Z,100994.39
2019-04-27T04:50:22.484Z,101001.92
2019-04-27T04:52:50.349Z,100992.64
2019-04-27T04:55:20.421Z,100993.93
2019-04-27T04:57:50.698Z,100990.81
2019-04-27T05:00:20.040Z,100987.64
2019-04-27T05:02:49.289Z,100988.59
2019-04-27T05:05:19.419Z,100988.65
2019-04-27T05:07:49.123Z,100979.95
2019-04-27T05:10:18.931Z,100988.44
2019-04-27T05:12:49.043Z,100990.27
2019-04-27T05:15:20.726Z,100986.39
2019-04-27T05:17:51.089Z,100989.01
2019-04-27T05:20:26.780Z,100989.92
2019-04-27T05:22:55.700Z,100988.09
2019-04-27T05:25:24.907Z,100985.69
2019-04-27T05:27:54.439Z,100980.99
2019-04-27T05:30:23.515Z,100984.19
2019-04-27T05:32:52.891Z,100972.20
2019-04-27T05:35:22.206Z,100970.73
2019-04-27T05:37:51.304Z,100974.99
2019-04-27T05:40:20.801Z,100976.01
2019-04-27T05:42:55.049Z,100972.94
2019-04-27T05:46:12.473Z,100967.65
2019-04-27T05:48:42.438Z,100963.56
2019-04-27T05:51:11.574Z,100954.99
2019-04-27T05:53:40.706Z,100957.59
2019-04-27T05:56:09.867Z,100954.03
2019-04-27T05:58:39.338Z,100953.06
2019-04-27T06:01:10.880Z,100957.65
2019-04-27T06:03:39.808Z,100951.55
2019-04-27T06:06:10.002Z,100955.39
2019-04-27T06:08:41.065Z,100951.27
2019-04-27T06:11:10.379Z,100943.23
2019-04-27T06:13:39.442Z,100947.98
2019-04-27T06:16:09.442Z,100944.46
2019-04-27T06:18:39.298Z,100944.41
2019-04-27T06:21:09.766Z,100939.77
2019-04-27T06:23:39.176Z,100939.28
2019-04-27T06:26:11.407Z,100943.42
2019-04-27T06:28:39.794Z,100947.96
2019-04-27T06:31:09.039Z,100942.08
2019-04-27T06:33:39.198Z,100940.81
2019-04-27T06:36:10.008Z,100946.40
2019-04-27T06:38:39.481Z,100940.45
2019-04-27T06:41:09.982Z,100940.33
2019-04-27T06:43:40.587Z,100939.27
2019-04-27T06:46:09.872Z,100936.95
2019-04-27T06:48:39.531Z,100934.27
2019-04-27T06:51:09.778Z,100926.95
2019-04-27T06:53:39.551Z,100932.19
2019-04-27T06:56:09.107Z,100929.02
2019-04-27T06:58:38.906Z,100926.06
2019-04-27T07:01:09.495Z,100926.22
2019-04-27T07:03:39.627Z,100928.25
2019-04-27T07:06:09.028Z,100935.03
2019-04-27T07:08:40.138Z,100927.88
2019-04-27T07:11:11.527Z,100938.05
2019-04-27T07:13:40.046Z,100935.37
2019-04-27T07:16:13.766Z,100928.05
2019-04-27T07:18:42.913Z,100930.39
2019-04-27T07:21:18.918Z,100929.46
2019-04-27T07:23:59.484Z,100931.34
2019-04-27T07:26:30.349Z,100920.72
2019-04-27T07:28:59.989Z,100929.99
2019-04-27T13:34:29.230Z,100922.53
2019-04-27T13:37:01.227Z,100922.53
2019-04-27T13:39:30.423Z,100738.27
2019-04-27T13:42:00.629Z,100743.95
2019-04-27T13:44:29.824Z,100755.60
2019-04-27T13:47:17.196Z,100773.09
2019-04-27T13:50:13.159Z,100778.05
2019-04-27T13:52:41.976Z,100794.28
2019-04-27T13:55:11.118Z,100809.84
2019-04-27T13:57:50.021Z,100815.42
2019-04-27T14:00:12.906Z,100812.35
2019-04-27T14:02:44.044Z,100797.86
2019-04-27T14:05:12.852Z,100812.01
2019-04-27T14:07:42.117Z,100813.83
2019-04-27T14:10:11.219Z,100807.83
2019-04-27T14:12:40.123Z,100809.38
2019-04-27T14:15:09.486Z,100821.38
2019-04-27T14:17:39.191Z,100810.03
2019-04-27T14:20:09.728Z,100808.59
2019-04-27T14:22:38.948Z,100808.59
2019-04-27T14:25:08.595Z,100815.40
2019-04-27T14:27:41.250Z,100814.25
2019-04-27T14:30:13.808Z,100814.14
2019-04-27T14:32:43.467Z,100822.81
2019-04-27T14:35:13.094Z,100805.71
2019-04-27T14:37:42.196Z,100803.58
2019-04-27T14:40:11.582Z,100804.92
2019-04-27T14:42:40.838Z,100804.45
2019-04-27T14:45:10.685Z,100809.94
2019-04-27T14:47:40.035Z,100809.16
2019-04-27T14:50:09.373Z,100806.39
2019-04-27T14:52:40.876Z,100811.88
2019-04-27T14:55:09.878Z,100816.42
2019-04-27T14:57:39.451Z,100815.75
2019-04-27T15:00:10.359Z,100817.96
2019-04-27T15:02:39.462Z,100818.83
2019-04-27T15:05:08.712Z,100819.38
2019-04-27T15:07:37.635Z,100824.37
2019-04-27T15:10:07.410Z,100831.34
2019-04-27T15:12:36.689Z,100826.25
2019-04-27T15:15:07.366Z,100827.95
2019-04-27T15:17:36.561Z,100832.87
2019-04-27T15:20:13.391Z,100836.45
2019-04-27T15:22:42.553Z,100831.88
2019-04-27T15:25:15.202Z,100828.64
2019-04-27T15:27:47.401Z,100831.48
2019-04-27T15:30:22.312Z,100837.37
2019-04-27T15:33:10.443Z,100836.73
2019-04-27T15:35:45.784Z,100830.42
2019-04-27T15:38:19.632Z,100833.34
2019-04-27T15:41:17.100Z,100835.00
2019-04-27T15:43:48.663Z,100834.11
2019-04-27T15:46:18.451Z,100836.73
2019-04-27T15:48:48.753Z,100844.03
2019-04-27T15:51:20.993Z,100843.23
2019-04-27T15:53:52.563Z,100846.94
2019-04-27T15:56:21.626Z,100847.81
2019-04-27T15:58:50.133Z,100847.05
2019-04-27T16:01:19.379Z,100847.86
2019-04-27T16:03:48.629Z,100852.22
2019-04-27T16:06:19.063Z,100856.31
2019-04-27T16:08:49.209Z,100859.39
2019-04-27T16:11:19.785Z,100860.81
2019-04-27T16:13:49.356Z,100860.13
2019-04-27T16:16:19.060Z,100865.23
2019-04-27T16:18:49.101Z,100867.30
2019-04-27T16:21:20.262Z,100865.02
2019-04-27T16:23:49.456Z,100865.81
2019-04-27T16:26:18.694Z,100872.41
2019-04-27T16:28:53.015Z,100871.94
2019-04-27T16:31:20.451Z,100867.16
2019-04-27T16:33:49.891Z,100871.40
2019-04-27T16:36:19.759Z,100871.19
2019-04-27T16:38:59.514Z,100876.14
2019-04-27T16:41:28.416Z,100885.53
2019-04-27T16:43:58.135Z,100880.27
2019-04-27T16:46:28.492Z,100883.64
2019-04-27T16:48:59.490Z,100885.70
2019-04-27T16:51:29.720Z,100885.92
2019-04-27T16:54:00.359Z,100892.62
2019-04-27T16:56:29.943Z,100890.41
2019-04-27T16:59:11.416Z,100890.00
2019-04-27T17:01:30.813Z,100891.75
2019-04-27T17:04:00.114Z,100892.44
2019-04-27T17:06:29.555Z,100900.11
2019-04-27T17:09:05.525Z,100895.30
2019-04-27T17:11:29.886Z,100903.73
2019-04-27T17:14:06.020Z,100900.58
2019-04-27T17:17:03.587Z,100900.26
2019-04-27T17:19:35.800Z,100899.39
2019-04-27T17:22:05.248Z,100900.26
2019-04-27T17:24:41.654Z,100899.31
2019-04-27T17:27:11.084Z,100900.26
2019-04-27T17:29:42.083Z,100897.89
2019-04-27T17:32:29.359Z,100897.20
2019-04-27T17:35:02.487Z,100904.73
2019-04-27T17:37:29.919Z,100906.05
2019-04-27T17:40:00.771Z,100913.69
2019-04-27T17:42:30.614Z,100910.67
2019-04-27T17:45:00.594Z,100917.00
2019-04-27T17:47:30.092Z,100925.10
2019-04-27T17:49:59.295Z,100923.90
2019-04-27T17:52:29.297Z,100923.29
2019-04-27T17:55:00.581Z,100928.53
2019-04-27T17:57:30.539Z,100939.41
2019-04-27T18:00:03.140Z,100938.02
2019-04-27T18:02:33.837Z,100940.70
2019-04-27T18:05:02.036Z,100939.65
2019-04-27T18:07:34.884Z,100939.94
2019-04-27T18:10:02.350Z,100932.03
2019-04-27T18:12:34.758Z,100930.23
2019-04-27T18:15:04.086Z,100935.52
2019-04-27T18:17:34.695Z,100933.38
2019-04-27T18:20:08.411Z,100930.08
2019-04-27T18:22:42.549Z,100941.17
2019-04-27T18:25:11.790Z,100939.80
2019-04-27T18:28:14.845Z,100947.06
2019-04-27T18:31:15.475Z,100951.80
2019-04-27T18:33:42.274Z,100951.81
2019-04-27T18:36:14.124Z,100955.89
2019-04-27T18:38:42.453Z,100959.02
2019-04-27T18:41:11.952Z,100965.70
2019-04-27T18:43:46.333Z,100970.64
2019-04-27T18:46:14.882Z,100970.84
2019-04-27T18:49:02.294Z,100979.75
2019-04-27T18:51:38.415Z,100979.21
2019-04-27T18:54:08.160Z,100983.69
2019-04-27T18:56:38.402Z,100996.02
2019-04-27T18:59:08.491Z,100994.17
2019-04-27T19:01:37.893Z,100995.09
2019-04-27T19:04:08.679Z,100991.86
2019-04-27T19:06:39.112Z,101001.34
2019-04-27T19:09:08.496Z,101008.30
2019-04-27T19:11:38.339Z,101008.23
2019-04-27T19:14:08.293Z,101012.95
2019-04-27T19:16:38.375Z,101017.06
2019-04-27T19:19:08.737Z,101025.08
2019-04-27T19:21:40.333Z,101019.06
2019-04-27T19:24:09.250Z,101023.11
2019-04-27T19:26:54.303Z,101025.92
2019-04-27T19:29:26.679Z,101022.90
2019-04-27T19:31:58.653Z,101027.55
2019-04-27T19:34:28.604Z,101031.36
2019-04-27T19:36:59.204Z,101036.75
2019-04-27T19:39:28.694Z,101036.52
2019-04-27T19:42:01.378Z,101040.34
2019-04-27T19:44:29.174Z,101044.35
2019-04-27T19:47:00.175Z,101042.50
2019-04-27T19:49:31.576Z,101047.16
2019-04-27T19:52:02.161Z,101038.61
2019-04-27T19:54:30.981Z,101043.84
2019-04-27T19:57:10.183Z,101047.48
2019-04-27T19:59:48.905Z,101051.44
2019-04-27T20:02:20.533Z,101057.41
2019-04-27T20:04:56.069Z,101055.25
2019-04-27T20:07:28.429Z,101052.59
2019-04-27T20:09:59.515Z,101052.17
2019-04-27T20:12:29.025Z,101056.88
2019-04-27T20:14:58.282Z,101058.80
2019-04-27T20:17:31.567Z,101057.09
2019-04-27T20:20:01.098Z,101056.81
2019-04-27T20:22:30.198Z,101062.23
2019-04-27T20:25:02.150Z,101060.58
2019-04-27T20:27:45.174Z,101065.45
2019-04-27T20:30:03.036Z,101067.66
2019-04-27T20:32:35.674Z,101068.12
2019-04-27T20:35:05.469Z,101063.29
2019-04-27T20:37:34.679Z,101063.42
2019-04-27T20:40:04.204Z,101069.26
2019-04-27T20:42:33.486Z,101072.89
2019-04-27T20:45:15.847Z,101080.34
2019-04-27T20:47:41.188Z,101086.34
2019-04-27T20:50:13.113Z,101079.48
2019-04-27T20:53:01.254Z,101087.66
2019-04-27T20:55:32.199Z,101083.45
2019-04-27T20:58:02.796Z,101091.45
2019-04-27T21:00:32.192Z,101098.20
2019-04-27T21:03:19.473Z,101096.41
2019-04-27T21:06:07.750Z,101100.98
2019-04-27T21:08:37.878Z,101103.74
2019-04-27T21:11:14.483Z,101101.70
2019-04-27T21:13:46.627Z,101101.70
2019-04-27T21:16:15.905Z,101100.98
2019-04-27T21:18:48.626Z,101105.20
2019-04-27T21:21:19.030Z,101106.20
2019-04-27T21:23:51.478Z,101106.39
2019-04-27T21:26:21.474Z,101105.94
2019-04-27T21:28:51.466Z,101105.06
2019-04-27T21:31:21.269Z,101108.72
2019-04-27T21:33:50.473Z,101108.64
2019-04-27T21:36:22.168Z,101113.26
2019-04-27T21:38:51.359Z,101114.59
2019-04-27T21:41:20.880Z,101114.79
2019-04-27T21:43:51.666Z,101114.03
2019-04-27T21:46:21.008Z,101122.56
2019-04-27T21:48:51.812Z,101122.59
2019-04-27T21:51:21.816Z,101119.89
2019-04-27T21:54:16.452Z,101129.59
2019-04-27T21:56:45.685Z,101122.94
2019-04-27T21:59:14.559Z,101129.17
2019-04-27T22:01:51.648Z,101130.97
2019-04-27T22:04:22.531Z,101133.62
2019-04-27T22:06:54.998Z,101130.59
2019-04-27T22:09:26.298Z,101139.45
2019-04-27T22:11:55.626Z,101138.12
2019-04-27T22:14:24.816Z,101141.35
2019-04-27T22:16:53.845Z,101137.52
2019-04-27T22:19:23.247Z,101142.42
2019-04-27T22:21:53.740Z,101139.80
2019-04-27T22:24:27.851Z,101147.83
2019-04-27T22:26:57.116Z,101145.62
2019-04-27T22:29:27.922Z,101147.41
2019-04-27T22:32:11.939Z,101152.23
2019-04-27T22:34:36.579Z,101145.58
2019-04-27T22:37:11.254Z,101142.16
2019-04-27T22:39:52.545Z,101149.69
2019-04-27T22:42:41.526Z,101152.69
2019-04-27T22:45:21.071Z,101149.53
2019-04-27T22:47:51.229Z,101151.94
2019-04-27T22:50:21.033Z,101153.72
2019-04-27T22:52:50.630Z,101159.55
2019-04-27T22:55:21.853Z,101158.21
2019-04-27T22:58:11.699Z,101161.40
2019-04-27T23:01:01.378Z,101167.95
2019-04-27T23:03:34.271Z,101156.42
2019-04-27T23:06:03.280Z,101152.16
2019-04-27T23:08:32.200Z,101155.66
2019-04-27T23:11:02.619Z,101161.40
2019-04-27T23:13:31.596Z,101163.15
2019-04-27T23:16:02.147Z,101164.98
2019-04-27T23:18:31.270Z,101164.98
2019-04-27T23:21:01.572Z,101161.97
2019-04-27T23:23:31.383Z,101167.22
2019-04-27T23:26:01.773Z,101163.64
2019-04-27T23:28:32.985Z,101163.72
2019-04-27T23:31:24.423Z,101165.16
2019-04-27T23:33:53.643Z,101167.86
2019-04-27T23:36:22.857Z,101164.92
2019-04-27T23:38:52.274Z,101173.37
2019-04-27T23:41:21.174Z,101175.64
2019-04-27T23:43:50.191Z,101170.84
2019-04-27T23:46:21.374Z,101170.88
2019-04-27T23:48:52.034Z,101170.01
2019-04-27T23:51:34.341Z,101165.59
2019-04-27T23:54:03.594Z,101169.17
2019-04-27T23:56:32.604Z,101167.34
2019-04-27T23:59:02.033Z,101164.72
